Time;durP1;ratioP1;P1;durP2;ratioP2;P2;SDS_P1;SDS_P2;PMS_P1;PMS_P2;Temp;Humidity;BMP_temperature;BMP_pressure;BME280_temperature;BME280_humidity;BME280_pressure;Samples;Min_cycle;Max_cycle;Signal;HPM_P1;HPM_P2
2021/06/06 00:00:44;;;;;;;8.23;5.10;;;;;;;16.14;58.10;100248.75;5028582;28;20033;-25
2021/06/06 00:03:16;;;;;;;6.85;4.70;;;;;;;15.35;60.93;100239.91;5028328;28;20037;-26
2021/06/06 00:05:53;;;;;;;7.80;5.75;;;;;;;15.74;59.65;100241.81;5028592;28;20038;-26
2021/06/06 00:08:18;;;;;;;7.97;4.97;;;;;;;15.43;60.85;100244.06;5028167;28;20040;-26
2021/06/06 00:10:44;;;;;;;7.50;4.55;;;;;;;14.89;62.78;100254.47;5028190;28;20034;-25
2021/06/06 00:13:11;;;;;;;6.70;4.60;;;;;;;14.61;63.18;100237.34;5027211;28;20033;-26
2021/06/06 00:15:36;;;;;;;7.57;4.75;;;;;;;14.46;63.51;100244.03;5028300;28;20037;-26
2021/06/06 00:18:02;;;;;;;7.93;4.60;;;;;;;14.40;64.01;100242.28;5028174;28;20036;-26
2021/06/06 00:20:28;;;;;;;9.57;5.05;;;;;;;15.06;62.22;100252.63;5027652;28;20509;-26
2021/06/06 00:22:56;;;;;;;7.25;4.97;;;;;;;14.74;62.62;100231.66;5027820;28;20025;-26
2021/06/06 00:25:22;;;;;;;9.85;5.50;;;;;;;14.81;62.66;100245.75;5028053;28;20037;-26
2021/06/06 00:27:47;;;;;;;10.25;5.85;;;;;;;15.59;59.89;100243.22;5027952;28;20123;-26
2021/06/06 00:30:13;;;;;;;10.07;6.00;;;;;;;15.39;60.57;100226.78;5027977;28;20037;-26
2021/06/06 00:32:39;;;;;;;8.95;5.32;;;;;;;14.86;62.77;100240.47;5028106;28;20041;-27
2021/06/06 00:35:08;;;;;;;7.68;5.68;;;;;;;15.40;60.58;100225.72;5028698;28;20025;-26
2021/06/06 00:37:33;;;;;;;7.93;5.22;;;;;;;15.95;58.44;100240.19;5027574;28;20178;-27
2021/06/06 00:39:59;;;;;;;9.00;5.50;;;;;;;15.92;57.86;100236.13;5028136;28;20808;-26
2021/06/06 00:42:26;;;;;;;10.88;6.10;;;;;;;15.96;57.35;100221.13;5027753;28;20065;-26
2021/06/06 00:44:52;;;;;;;8.75;5.45;;;;;;;15.61;58.48;100241.09;5026772;28;20929;-25
2021/06/06 00:47:17;;;;;;;8.75;5.05;;;;;;;14.58;62.10;100221.72;5009937;28;20030;-27
2021/06/06 00:49:44;;;;;;;7.55;5.60;;;;;;;15.02;61.42;100248.78;5026588;28;20148;-26
2021/06/06 00:52:09;;;;;;;8.25;5.45;;;;;;;15.31;60.48;100229.91;5025947;28;20144;-25
2021/06/06 00:54:40;;;;;;;6.95;5.25;;;;;;;15.04;61.26;100219.81;5026391;28;20503;-26
2021/06/06 00:57:10;;;;;;;7.28;5.20;;;;;;;15.70;59.15;100224.53;5010278;28;20109;-25
2021/06/06 00:59:36;;;;;;;9.32;6.95;;;;;;;15.46;59.45;100232.78;5026049;28;20108;-26
2021/06/06 01:02:03;;;;;;;10.85;6.75;;;;;;;15.72;59.03;100227.78;5010269;28;20049;-26
2021/06/06 01:04:28;;;;;;;8.05;5.63;;;;;;;15.20;60.54;100224.38;5027472;28;20849;-26
2021/06/06 01:06:54;;;;;;;8.55;6.13;;;;;;;15.51;59.36;100227.50;5027292;28;20033;-26
2021/06/06 01:09:21;;;;;;;10.80;6.55;;;;;;;15.59;58.78;100205.56;5027408;28;20033;-25
2021/06/06 01:12:07;;;;;;;8.40;6.30;;;;;;;15.29;59.95;100237.38;5027365;28;20033;-26
2021/06/06 01:14:36;;;;;;;9.75;6.35;;;;;;;14.93;62.05;100231.44;5025772;28;20025;-26
2021/06/06 01:17:04;;;;;;;9.65;6.03;;;;;;;15.18;61.36;100226.50;5025847;28;20045;-26
2021/06/06 01:19:33;;;;;;;7.85;6.57;;;;;;;15.52;59.65;100237.19;5010349;28;20176;-26
2021/06/06 01:22:05;;;;;;;10.93;7.13;;;;;;;15.01;62.10;100236.41;5028059;28;20080;-26
2021/06/06 01:24:48;;;;;;;10.32;7.07;;;;;;;14.39;63.96;100227.25;5027175;28;20417;-26
2021/06/06 01:27:16;;;;;;;9.52;6.65;;;;;;;15.12;61.69;100223.94;5009924;28;20068;-25
2021/06/06 01:29:47;;;;;;;11.75;7.38;;;;;;;15.46;60.11;100227.41;5026059;28;20026;-26
2021/06/06 01:32:15;;;;;;;10.95;6.95;;;;;;;15.50;60.04;100230.44;5009218;28;20095;-26
2021/06/06 01:34:42;;;;;;;9.63;7.57;;;;;;;15.05;61.82;100238.34;5027242;28;20029;-26
2021/06/06 01:37:10;;;;;;;11.88;6.97;;;;;;;14.47;63.62;100226.88;5009578;28;20036;-26
2021/06/06 01:39:49;;;;;;;10.82;7.90;;;;;;;14.33;64.41;100228.22;5009649;28;20036;-26
2021/06/06 01:42:17;;;;;;;10.13;7.07;;;;;;;14.82;61.74;100201.75;5025647;28;20041;-26
2021/06/06 01:44:45;;;;;;;9.88;7.22;;;;;;;15.14;60.50;100198.50;5010093;28;20025;-25
2021/06/06 01:47:22;;;;;;;9.50;7.40;;;;;;;15.33;60.29;100201.72;5010154;28;20525;-27
2021/06/06 01:49:50;;;;;;;12.68;7.43;;;;;;;15.42;59.18;100204.78;5025653;28;20111;-26
2021/06/06 01:52:16;;;;;;;11.50;8.13;;;;;;;15.30;58.96;100187.94;5026761;28;20126;-25
2021/06/06 01:54:42;;;;;;;11.75;7.57;;;;;;;15.17;59.80;100187.25;5009299;28;20749;-26
2021/06/06 01:57:10;;;;;;;9.93;7.25;;;;;;;14.92;60.94;100205.66;5025954;28;20037;-26
2021/06/06 01:59:39;;;;;;;9.15;7.25;;;;;;;13.76;64.95;100183.41;5025783;28;20068;-26
2021/06/06 02:02:05;;;;;;;10.00;7.18;;;;;;;13.83;65.07;100188.63;5009582;28;20046;-26
2021/06/06 02:04:30;;;;;;;11.77;7.60;;;;;;;13.94;65.05;100197.69;5009352;28;20038;-26
2021/06/06 02:07:25;;;;;;;8.85;6.95;;;;;;;14.02;65.14;100202.69;5025481;28;20044;-26
2021/06/06 02:10:07;;;;;;;10.88;7.75;;;;;;;14.57;62.96;100209.38;5027739;28;20060;-26
2021/06/06 02:12:32;;;;;;;10.88;7.68;;;;;;;14.20;64.07;100201.66;4998237;28;20030;-26
2021/06/06 02:14:58;;;;;;;13.52;8.02;;;;;;;14.60;62.23;100204.31;5029586;28;20045;-25
2021/06/06 02:17:30;;;;;;;10.95;8.02;;;;;;;14.73;62.02;100207.75;5030134;28;20036;-26
2021/06/06 02:19:57;;;;;;;10.55;7.38;;;;;;;13.69;64.88;100206.00;5030654;28;20026;-26
2021/06/06 02:22:23;;;;;;;10.68;6.60;;;;;;;13.46;65.35;100188.91;5030035;28;20044;-26
2021/06/06 02:24:48;;;;;;;11.13;7.18;;;;;;;13.94;64.75;100208.44;5028912;28;20037;-26
2021/06/06 02:27:20;;;;;;;10.65;7.13;;;;;;;14.52;62.45;100206.56;5030457;28;20029;-26
2021/06/06 02:30:02;;;;;;;9.10;7.13;;;;;;;14.23;63.25;100193.16;5030266;28;20034;-26
2021/06/06 02:32:36;;;;;;;11.63;7.68;;;;;;;14.68;62.09;100207.66;5030270;28;20029;-26
2021/06/06 02:35:02;;;;;;;11.82;8.07;;;;;;;14.93;60.56;100207.28;5030485;28;20105;-26
2021/06/06 02:37:30;;;;;;;12.18;8.30;;;;;;;14.89;60.42;100196.19;5029879;28;20116;-26
2021/06/06 02:40:06;;;;;;;11.73;8.95;;;;;;;14.81;60.91;100189.38;5028829;28;20029;-26
2021/06/06 02:42:38;;;;;;;10.85;7.95;;;;;;;14.71;60.78;100183.84;5012370;28;20037;-26
2021/06/06 02:45:17;;;;;;;11.40;8.25;;;;;;;14.72;60.92;100195.41;5029385;28;20033;-25
2021/06/06 02:47:42;;;;;;;;;;;;;;;14.79;60.48;100210.28;5032825;28;20536;-25
2021/06/06 02:50:28;;;;;;;10.27;8.02;;;;;;;14.27;62.71;100191.63;5030316;28;19917;-25
2021/06/06 02:52:57;;;;;;;13.05;8.50;;;;;;;14.39;62.42;100200.44;5028368;28;20139;-25
2021/06/06 02:55:24;;;;;;;9.13;7.60;;;;;;;14.42;62.22;100180.34;5028289;28;20610;-25
2021/06/06 02:57:56;;;;;;;11.15;8.13;;;;;;;14.10;63.05;100177.34;5028359;28;20022;-25
2021/06/06 03:00:42;;;;;;;12.90;9.05;;;;;;;14.55;61.60;100200.72;5011928;28;20034;-26
2021/06/06 03:03:13;;;;;;;15.77;9.55;;;;;;;14.77;60.65;100204.34;5028753;28;20561;-25
2021/06/06 03:05:38;;;;;;;13.00;8.43;;;;;;;14.67;60.38;100185.41;5012381;28;20120;-25
2021/06/06 03:08:05;;;;;;;13.85;7.80;;;;;;;14.54;61.44;100199.06;5028397;28;20493;-26
2021/06/06 03:10:32;;;;;;;12.57;7.95;;;;;;;14.14;62.18;100205.31;5028108;28;20444;-27
2021/06/06 03:12:59;;;;;;;12.13;7.70;;;;;;;13.66;64.01;100186.69;5012032;28;20064;-25
2021/06/06 03:15:28;;;;;;;14.10;8.57;;;;;;;14.35;62.14;100188.56;5028143;28;20044;-26
2021/06/06 03:17:54;;;;;;;11.20;7.85;;;;;;;14.74;61.03;100204.03;5011728;28;20128;-25
2021/06/06 03:20:27;;;;;;;11.80;7.50;;;;;;;14.64;61.70;100210.03;5011264;28;20136;-26
2021/06/06 03:22:53;;;;;;;12.85;7.80;;;;;;;14.44;63.15;100197.84;5011490;28;20037;-25
2021/06/06 03:25:40;;;;;;;12.55;7.25;;;;;;;14.49;62.83;100199.00;5011603;28;20489;-26
2021/06/06 03:28:06;;;;;;;11.05;7.47;;;;;;;14.25;64.01;100191.84;5028221;28;20033;-25
2021/06/06 03:30:36;;;;;;;10.98;7.88;;;;;;;13.99;65.28;100203.97;5011206;28;20032;-25
2021/06/06 03:33:05;;;;;;;12.00;7.57;;;;;;;14.32;64.75;100191.69;5028070;28;20060;-25
2021/06/06 03:35:31;;;;;;;10.27;7.45;;;;;;;14.39;64.76;100187.03;5011693;28;20104;-26
2021/06/06 03:37:56;;;;;;;11.52;7.28;;;;;;;14.01;65.92;100191.13;5028896;28;20383;-25
2021/06/06 03:40:22;;;;;;;10.68;7.43;;;;;;;13.51;66.61;100185.56;5027698;28;20033;-25
2021/06/06 03:42:48;;;;;;;11.30;7.00;;;;;;;13.02;67.84;100159.81;5028662;28;20409;-25
2021/06/06 03:45:14;;;;;;;13.20;7.15;;;;;;;13.13;67.83;100187.63;5028789;28;20033;-25
2021/06/06 03:47:40;;;;;;;14.82;6.38;;;;;;;12.87;68.39;100178.19;5029024;28;20033;-25
2021/06/06 03:50:07;;;;;;;8.85;6.18;;;;;;;12.65;68.58;100169.91;5028827;28;20048;-25
2021/06/06 03:52:34;;;;;;;8.80;5.85;;;;;;;12.64;69.50;100181.63;5028450;28;20099;-26
2021/06/06 03:55:05;;;;;;;11.05;6.55;;;;;;;12.90;69.13;100182.28;5028387;28;20054;-25
2021/06/06 03:57:32;;;;;;;11.30;6.47;;;;;;;13.05;68.50;100182.63;5010512;28;20116;-25
2021/06/06 03:59:58;;;;;;;10.02;7.07;;;;;;;13.02;69.33;100181.22;5028847;28;20068;-25
2021/06/06 04:02:24;;;;;;;10.98;7.43;;;;;;;12.74;69.80;100160.47;5028253;28;20064;-26
2021/06/06 04:04:49;;;;;;;13.20;7.55;;;;;;;12.84;70.37;100182.13;5028563;28;20033;-25
2021/06/06 04:07:14;;;;;;;9.75;7.35;;;;;;;12.67;70.14;100159.78;5028551;28;20037;-25
2021/06/06 04:09:40;;;;;;;15.05;8.68;;;;;;;12.87;70.38;100178.19;5027156;28;20037;-25
2021/06/06 04:12:06;;;;;;;11.27;7.50;;;;;;;12.82;71.84;100184.22;5028204;28;20453;-25
2021/06/06 04:14:31;;;;;;;12.50;8.23;;;;;;;13.02;71.05;100183.91;5028529;28;20029;-25
2021/06/06 04:16:57;;;;;;;10.95;8.57;;;;;;;13.24;70.36;100173.44;5028563;28;20048;-25
2021/06/06 04:19:23;;;;;;;11.85;8.57;;;;;;;13.86;68.34;100178.25;5027003;28;20478;-26
2021/06/06 04:21:48;;;;;;;11.55;8.40;;;;;;;14.55;66.40;100200.72;5028221;28;20068;-25
2021/06/06 04:24:14;;;;;;;12.65;9.48;;;;;;;14.18;68.04;100195.72;5027796;28;20460;-25
2021/06/06 04:26:39;;;;;;;16.02;8.85;;;;;;;14.35;68.22;100182.38;5027994;28;20029;-26
2021/06/06 04:29:06;;;;;;;40.38;11.40;;;;;;;14.46;68.33;100193.06;5026861;28;20032;-25
2021/06/06 04:31:32;;;;;;;13.25;10.05;;;;;;;14.34;68.36;100189.59;5028112;28;20120;-25
2021/06/06 04:33:57;;;;;;;11.43;8.65;;;;;;;14.92;66.85;100193.03;5027422;28;20104;-25
2021/06/06 04:36:23;;;;;;;13.48;9.77;;;;;;;14.89;67.26;100190.03;5027823;28;20041;-25
2021/06/06 04:38:48;;;;;;;14.32;9.95;;;;;;;14.86;67.00;100194.81;5028054;28;20036;-26
2021/06/06 04:41:15;;;;;;;13.38;9.32;;;;;;;14.98;67.01;100189.38;5026460;28;20485;-25
2021/06/06 04:43:40;;;;;;;18.23;11.07;;;;;;;15.00;67.50;100178.41;5027971;28;20441;-26
2021/06/06 04:46:06;;;;;;;12.15;9.73;;;;;;;15.05;68.53;100183.84;5027850;28;20033;-25
2021/06/06 04:48:33;;;;;;;16.27;10.05;;;;;;;15.44;67.31;100187.34;5027663;28;20022;-26
2021/06/06 04:51:00;;;;;;;14.57;9.23;;;;;;;15.57;66.72;100188.88;5026523;28;20037;-25
2021/06/06 04:53:26;;;;;;;14.88;9.93;;;;;;;15.88;66.29;100191.97;5027845;28;20062;-25
2021/06/06 04:55:52;;;;;;;13.07;9.50;;;;;;;16.01;65.11;100180.81;5010135;28;20029;-25
2021/06/06 04:58:19;;;;;;;14.63;10.40;;;;;;;16.70;62.94;100198.19;5027725;28;20030;-26
2021/06/06 05:00:45;;;;;;;14.13;11.20;;;;;;;16.83;62.53;100176.25;5027927;28;20095;-27
2021/06/06 05:03:11;;;;;;;15.23;10.65;;;;;;;17.04;62.13;100176.38;5028413;28;20816;-26
2021/06/06 05:05:36;;;;;;;16.23;10.35;;;;;;;16.94;61.04;100185.22;5027759;28;20029;-25
2021/06/06 05:08:02;;;;;;;13.27;11.18;;;;;;;17.20;60.63;100188.91;5026150;28;20030;-25
2021/06/06 05:10:29;;;;;;;13.15;11.05;;;;;;;17.17;60.15;100186.72;5027008;28;20120;-25
2021/06/06 05:12:55;;;;;;;14.75;10.32;;;;;;;17.40;59.54;100182.00;5027573;28;20025;-26
2021/06/06 05:15:20;;;;;;;16.60;10.93;;;;;;;17.66;59.66;100185.66;5026471;28;20025;-25
2021/06/06 05:17:46;;;;;;;15.02;10.15;;;;;;;17.68;59.29;100189.72;5027441;28;20548;-25
2021/06/06 05:20:14;;;;;;;11.85;9.93;;;;;;;17.83;59.46;100185.47;5025861;28;20045;-25
2021/06/06 05:22:39;;;;;;;14.07;10.50;;;;;;;17.81;59.33;100179.50;5027267;28;20037;-25
2021/06/06 05:25:05;;;;;;;12.90;9.90;;;;;;;18.02;58.55;100189.34;5027258;28;20030;-25
2021/06/06 05:27:31;;;;;;;12.90;10.05;;;;;;;18.13;58.44;100170.47;5026296;28;20166;-25
2021/06/06 05:29:56;;;;;;;14.95;10.00;;;;;;;18.45;58.07;100195.38;5027462;28;20036;-25
2021/06/06 05:32:22;;;;;;;11.38;9.55;;;;;;;18.37;57.37;100192.38;5027391;28;20386;-25
2021/06/06 05:34:47;;;;;;;12.55;9.10;;;;;;;18.16;58.72;100199.63;5027294;28;20044;-25
2021/06/06 05:37:13;;;;;;;14.23;9.82;;;;;;;18.26;58.80;100192.34;5027341;28;20025;-26
2021/06/06 05:39:40;;;;;;;12.90;10.57;;;;;;;18.60;59.28;100186.47;5027197;28;20030;-26
2021/06/06 05:42:06;;;;;;;15.57;9.65;;;;;;;18.45;59.74;100191.88;5009683;28;20119;-26
2021/06/06 05:44:31;;;;;;;14.38;9.15;;;;;;;18.78;58.05;100190.53;5027221;28;20532;-26
2021/06/06 05:46:56;;;;;;;12.85;9.02;;;;;;;19.40;56.55;100194.00;5031301;28;20044;-25
2021/06/06 05:49:22;;;;;;;13.25;8.65;;;;;;;19.17;55.33;100198.09;5030191;28;20040;-25
2021/06/06 05:51:47;;;;;;;13.00;9.15;;;;;;;19.23;56.11;100199.72;5029467;28;20042;-25
2021/06/06 05:54:13;;;;;;;12.30;9.15;;;;;;;19.36;56.00;100195.63;5030753;28;20872;-25
2021/06/06 05:56:38;;;;;;;10.95;8.38;;;;;;;19.52;54.70;100179.38;5030868;28;20036;-25
2021/06/06 05:59:04;;;;;;;11.50;7.97;;;;;;;19.63;54.63;100189.06;5030897;28;20030;-25
2021/06/06 06:01:30;;;;;;;10.70;8.43;;;;;;;20.01;54.42;100182.16;5030818;28;20025;-25
2021/06/06 06:03:55;;;;;;;14.90;9.30;;;;;;;20.15;53.37;100198.59;5030932;28;20087;-25
2021/06/06 06:06:21;;;;;;;11.48;7.35;;;;;;;20.37;52.22;100195.50;5030525;28;20041;-25
2021/06/06 06:08:46;;;;;;;12.77;8.68;;;;;;;20.59;52.29;100196.97;5030477;28;20026;-25
2021/06/06 06:11:14;;;;;;;11.43;8.00;;;;;;;20.69;52.00;100196.09;5030607;28;20032;-25
2021/06/06 06:13:41;;;;;;;9.63;6.65;;;;;;;20.24;51.60;100187.97;5029442;28;20037;-25
2021/06/06 06:16:07;;;;;;;8.65;6.40;;;;;;;20.50;49.61;100188.63;5013125;28;20441;-25
2021/06/06 06:18:33;;;;;;;11.32;6.63;;;;;;;20.44;50.74;100174.31;5030204;28;20025;-25
2021/06/06 06:20:58;;;;;;;20.13;8.07;;;;;;;20.78;50.50;100181.66;5030421;28;20045;-26
2021/06/06 06:23:24;;;;;;;14.07;6.57;;;;;;;20.78;50.00;100178.13;5029023;28;20026;-25
2021/06/06 06:25:50;;;;;;;11.95;7.60;;;;;;;21.13;49.23;100179.72;5030529;28;20608;-26
2021/06/06 06:28:16;;;;;;;11.02;7.70;;;;;;;21.12;49.40;100175.38;5030380;28;20560;-26
2021/06/06 06:30:41;;;;;;;9.98;6.43;;;;;;;21.00;49.11;100178.50;5030682;28;20033;-25
2021/06/06 06:33:07;;;;;;;9.10;5.80;;;;;;;20.92;49.61;100178.28;5030569;28;20220;-25
2021/06/06 06:35:34;;;;;;;9.32;7.05;;;;;;;21.12;46.93;100161.81;5029308;28;20071;-24
2021/06/06 06:37:59;;;;;;;9.70;7.40;;;;;;;21.13;48.39;100174.31;5029899;28;20108;-25
2021/06/06 06:40:25;;;;;;;10.60;6.95;;;;;;;21.18;46.60;100170.72;5030168;28;20032;-25
2021/06/06 06:42:50;;;;;;;9.65;6.63;;;;;;;21.29;47.99;100174.97;5030043;28;20401;-25
2021/06/06 06:45:21;;;;;;;6.93;5.45;;;;;;;20.85;48.22;100171.28;5030091;28;20045;-25
2021/06/06 06:47:47;;;;;;;8.98;5.50;;;;;;;21.38;46.61;100175.94;5028842;28;20026;-24
2021/06/06 06:50:13;;;;;;;10.30;6.75;;;;;;;21.69;47.26;100186.47;5029713;28;20038;-25
2021/06/06 06:52:38;;;;;;;8.25;6.00;;;;;;;21.03;48.19;100188.75;5029859;28;20053;-25
2021/06/06 06:55:10;;;;;;;10.73;5.88;;;;;;;21.23;47.69;100173.41;5028853;28;20050;-25
2021/06/06 06:57:35;;;;;;;7.28;6.07;;;;;;;21.45;47.55;100164.75;5029197;28;20460;-25
2021/06/06 07:00:01;;;;;;;10.57;6.00;;;;;;;21.83;46.85;100175.72;5029927;28;20478;-25
2021/06/06 07:02:26;;;;;;;22.10;5.82;;;;;;;21.84;46.98;100169.16;5029531;28;20053;-25
2021/06/06 07:04:52;;;;;;;7.93;5.30;;;;;;;22.26;44.50;100159.38;5029635;28;20040;-25
2021/06/06 07:07:17;;;;;;;8.23;5.47;;;;;;;22.41;45.34;100170.03;5029460;28;20021;-25
2021/06/06 07:09:43;;;;;;;9.32;5.40;;;;;;;22.23;45.91;100168.06;5028467;28;20040;-24
2021/06/06 07:12:08;;;;;;;9.60;5.38;;;;;;;22.72;45.40;100168.72;5029573;28;20048;-24
2021/06/06 07:14:34;;;;;;;9.20;5.85;;;;;;;22.99;45.07;100162.56;5029198;28;20038;-24
2021/06/06 07:16:59;;;;;;;7.45;5.15;;;;;;;23.03;44.27;100164.41;5029380;28;20029;-25
2021/06/06 07:19:26;;;;;;;11.18;6.03;;;;;;;23.10;44.84;100158.56;5029351;28;20029;-25
2021/06/06 07:21:51;;;;;;;13.00;5.85;;;;;;;23.25;43.50;100144.69;5029351;28;20482;-25
2021/06/06 07:24:17;;;;;;;11.05;5.50;;;;;;;23.64;42.12;100151.53;5029347;28;20030;-24
2021/06/06 07:26:45;;;;;;;8.38;4.97;;;;;;;24.01;41.50;100146.16;5028165;28;20501;-26
2021/06/06 07:29:13;;;;;;;6.95;4.97;;;;;;;23.70;43.23;100159.56;5027963;28;20087;-25
2021/06/06 07:31:40;;;;;;;6.88;4.30;;;;;;;24.02;40.90;100150.47;5029453;28;20076;-25
2021/06/06 07:34:05;;;;;;;7.78;5.28;;;;;;;24.15;41.71;100159.72;5027992;28;20037;-25
2021/06/06 07:36:31;;;;;;;5.32;4.25;;;;;;;24.11;40.74;100147.81;5028833;28;20033;-25
2021/06/06 07:38:56;;;;;;;6.68;4.70;;;;;;;24.33;41.16;100166.13;5028062;28;20113;-26
2021/06/06 07:41:22;;;;;;;8.77;4.88;;;;;;;24.26;41.67;100161.09;5028143;28;20033;-24
2021/06/06 07:43:48;;;;;;;10.70;4.55;;;;;;;24.40;40.79;100150.94;5027743;28;20096;-25
2021/06/06 07:46:14;;;;;;;7.47;4.68;;;;;;;24.67;40.78;100157.41;5027894;28;20040;-25
2021/06/06 07:48:41;;;;;;;8.48;4.60;;;;;;;25.08;38.82;100150.91;5027451;28;20037;-24
2021/06/06 07:51:07;;;;;;;18.38;5.07;;;;;;;25.23;39.91;100158.72;5027616;28;20033;-24
2021/06/06 07:53:33;;;;;;;8.73;5.07;;;;;;;24.81;41.23;100140.97;5028682;28;20077;-24
2021/06/06 07:55:59;;;;;;;8.73;4.53;;;;;;;24.40;39.26;100136.53;5028877;28;20041;-24
2021/06/06 07:58:29;;;;;;;7.35;3.95;;;;;;;24.29;40.10;100138.66;5028792;28;20025;-24
2021/06/06 08:00:55;;;;;;;6.30;4.22;;;;;;;24.70;38.93;100143.13;5027702;28;20040;-24
2021/06/06 08:03:21;;;;;;;8.45;4.53;;;;;;;24.40;37.20;100145.50;5027103;28;20025;-24
2021/06/06 08:05:48;;;;;;;6.45;3.80;;;;;;;24.51;37.14;100150.72;5028448;28;20034;-24
2021/06/06 08:08:14;;;;;;;5.47;4.10;;;;;;;24.40;37.09;100150.16;5028166;28;20030;-27
2021/06/06 08:10:43;;;;;;;9.68;4.03;;;;;;;24.51;38.57;100139.81;5027280;28;20029;-24
2021/06/06 08:13:08;;;;;;;8.55;4.40;;;;;;;24.97;38.74;100155.03;5028470;28;20033;-24
2021/06/06 08:15:34;;;;;;;4.80;3.72;;;;;;;25.03;37.09;100151.84;5028250;28;20036;-24
2021/06/06 08:18:04;;;;;;;4.13;3.47;;;;;;;25.33;38.85;100159.53;5028227;28;20453;-24
2021/06/06 08:20:31;;;;;;;6.55;4.63;;;;;;;25.86;36.04;100155.81;5028378;28;20472;-24
2021/06/06 08:22:57;;;;;;;5.33;3.80;;;;;;;25.98;35.93;100145.09;5028424;28;20033;-25
2021/06/06 08:25:23;;;;;;;6.53;4.00;;;;;;;25.56;36.45;100154.78;5028212;28;20037;-24
2021/06/06 08:27:49;;;;;;;5.32;3.60;;;;;;;25.31;36.00;100148.94;5026895;28;20416;-24
2021/06/06 08:30:27;;;;;;;7.22;3.53;;;;;;;25.55;35.04;100134.88;5027947;28;20092;-24
2021/06/06 08:32:53;;;;;;;5.40;3.75;;;;;;;25.78;35.87;100141.00;5028264;28;20036;-24
2021/06/06 08:35:18;;;;;;;5.72;4.05;;;;;;;26.32;35.58;100145.44;5028404;28;20860;-25
2021/06/06 08:37:44;;;;;;;5.65;3.58;;;;;;;26.71;34.12;100136.22;5027260;28;20063;-24
2021/06/06 08:40:10;;;;;;;5.32;3.47;;;;;;;27.10;33.66;100137.06;5027070;28;20838;-24
2021/06/06 08:42:37;;;;;;;6.13;4.30;;;;;;;26.64;34.09;100130.44;5027004;28;20037;-24
2021/06/06 08:45:09;;;;;;;7.22;4.20;;;;;;;27.27;32.95;100141.69;5010383;28;20025;-24
2021/06/06 08:47:35;;;;;;;7.97;4.18;;;;;;;27.33;33.73;100145.03;5027908;28;20029;-25
2021/06/06 08:50:23;;;;;;;6.50;4.00;;;;;;;26.92;34.15;100119.09;5026826;28;20056;-26
2021/06/06 08:53:06;;;;;;;6.60;3.90;;;;;;;26.45;35.55;100145.22;5027952;28;20064;-26
2021/06/06 08:55:41;;;;;;;6.57;3.78;;;;;;;26.72;34.79;100137.81;5026657;28;20444;-24
2021/06/06 08:58:07;;;;;;;5.55;3.97;;;;;;;27.43;32.81;100125.50;5027641;28;20069;-24
2021/06/06 09:00:34;;;;;;;9.80;4.38;;;;;;;26.97;34.57;100122.47;5027776;28;20119;-24
2021/06/06 09:03:01;;;;;;;;;;;;;;;26.71;35.10;100122.53;5028275;28;20033;-24
2021/06/06 09:05:29;;;;;;;6.78;3.72;;;;;;;26.96;35.68;100109.91;5026490;28;19996;-24
2021/06/06 09:07:55;;;;;;;7.45;3.85;;;;;;;27.11;33.47;100127.69;5027451;28;20021;-24
2021/06/06 09:10:30;;;;;;;14.50;4.40;;;;;;;27.33;34.43;100123.13;4993338;28;20033;-24
2021/06/06 09:12:56;;;;;;;8.05;3.55;;;;;;;28.14;33.44;100107.47;5027602;28;20025;-25
2021/06/06 09:15:22;;;;;;;5.90;4.03;;;;;;;28.08;33.56;100108.81;5009889;28;20041;-24
2021/06/06 09:17:53;;;;;;;6.28;3.75;;;;;;;28.81;33.02;100103.56;5027333;28;20021;-24
2021/06/06 09:20:36;;;;;;;6.38;3.60;;;;;;;28.69;32.72;100099.97;5025226;28;20552;-25
2021/06/06 09:23:31;;;;;;;8.85;3.67;;;;;;;28.58;32.92;100105.91;5027579;28;20040;-24
2021/06/06 09:26:06;;;;;;;5.18;3.80;;;;;;;28.69;32.29;100089.81;5026798;28;20076;-24
2021/06/06 09:28:33;;;;;;;4.75;3.55;;;;;;;28.64;30.26;100098.25;5027374;28;20072;-25
2021/06/06 09:31:06;;;;;;;5.13;4.20;;;;;;;29.18;30.03;100100.88;5026285;28;20029;-24
2021/06/06 09:33:36;;;;;;;6.65;3.70;;;;;;;29.06;29.96;100100.84;5027702;28;20037;-24
2021/06/06 09:36:05;;;;;;;5.03;3.60;;;;;;;28.71;29.86;100083.97;5026217;28;20044;-24
2021/06/06 09:38:30;;;;;;;5.90;3.63;;;;;;;28.98;29.62;100085.28;5025738;28;20036;-24
2021/06/06 09:40:56;;;;;;;6.28;4.25;;;;;;;28.31;31.21;100092.78;5027363;28;20029;-24
2021/06/06 09:43:25;;;;;;;7.63;3.78;;;;;;;28.32;31.32;100081.47;5025880;28;20430;-24
2021/06/06 09:45:51;;;;;;;7.30;4.05;;;;;;;28.47;31.46;100069.06;5027246;28;20474;-25
2021/06/06 09:48:27;;;;;;;5.95;3.80;;;;;;;28.84;31.33;100080.13;5025948;28;20029;-24
2021/06/06 09:50:53;;;;;;;5.30;3.58;;;;;;;28.68;30.98;100070.94;5026336;28;20046;-24
2021/06/06 09:53:21;;;;;;;7.72;4.03;;;;;;;29.19;29.98;100079.69;5025988;28;20135;-24
2021/06/06 09:55:47;;;;;;;6.32;3.70;;;;;;;28.99;29.46;100071.22;5026700;28;20397;-27
2021/06/06 09:58:17;;;;;;;6.63;3.72;;;;;;;28.97;30.30;100067.19;5026220;28;20849;-24
2021/06/06 10:00:49;;;;;;;5.22;3.90;;;;;;;28.99;29.25;100064.91;5026158;28;20520;-25
2021/06/06 10:03:38;;;;;;;5.45;3.92;;;;;;;28.56;30.41;100068.97;5025980;28;20029;-24
2021/06/06 10:06:18;;;;;;;5.97;3.80;;;;;;;28.45;29.74;100047.44;5025880;28;20486;-24
2021/06/06 10:08:44;;;;;;;5.43;3.72;;;;;;;28.48;30.60;100039.66;5027770;28;20880;-24
2021/06/06 10:11:15;;;;;;;5.88;3.92;;;;;;;28.71;31.49;100057.34;5026197;28;20021;-24
2021/06/06 10:13:43;;;;;;;5.43;3.53;;;;;;;29.63;29.75;100044.94;5027237;28;20037;-24
2021/06/06 10:16:18;;;;;;;6.18;3.67;;;;;;;29.51;28.32;100033.97;5026868;28;20123;-24
2021/06/06 10:18:46;;;;;;;6.80;3.95;;;;;;;29.70;28.61;100038.84;5025524;28;20033;-24
2021/06/06 10:21:23;;;;;;;4.60;3.42;;;;;;;29.68;30.36;100045.84;5026997;28;20033;-24
2021/06/06 10:23:56;;;;;;;5.22;3.85;;;;;;;29.83;30.47;100031.38;5009581;28;20033;-24
2021/06/06 10:26:34;;;;;;;5.95;3.35;;;;;;;29.99;28.05;100040.47;4993159;28;20033;-24
2021/06/06 10:29:24;;;;;;;6.40;3.55;;;;;;;30.09;27.64;100043.88;5025558;28;20413;-24
2021/06/06 10:31:50;;;;;;;5.35;3.58;;;;;;;30.46;27.39;100044.50;5027222;28;20045;-25
2021/06/06 10:34:23;;;;;;;5.50;3.65;;;;;;;31.03;26.56;100029.38;5038755;28;20067;-24
2021/06/06 10:36:48;;;;;;;5.60;3.38;;;;;;;31.11;27.58;100038.63;5024329;28;20052;-25
2021/06/06 10:39:23;;;;;;;7.35;3.50;;;;;;;30.04;27.54;100025.69;5038696;28;20412;-24
2021/06/06 10:41:52;;;;;;;5.38;3.40;;;;;;;30.83;24.84;100028.53;5022611;28;20029;-25
2021/06/06 10:44:20;;;;;;;7.43;3.63;;;;;;;30.84;25.11;100019.09;5039459;28;20022;-24
2021/06/06 10:46:55;;;;;;;5.43;3.33;;;;;;;30.98;26.14;100035.19;5023234;28;20551;-24
2021/06/06 10:49:22;;;;;;;5.15;3.67;;;;;;;30.78;27.43;100025.25;5021133;28;20425;-26
2021/06/06 10:51:52;;;;;;;5.53;3.38;;;;;;;30.68;26.41;100021.06;5039695;28;20041;-25
2021/06/06 10:54:34;;;;;;;6.47;3.15;;;;;;;30.84;26.21;100019.09;5037934;28;20052;-24
2021/06/06 10:57:05;;;;;;;4.30;3.25;;;;;;;31.31;25.14;100011.13;5038174;28;20041;-24
2021/06/06 11:00:45;;;;;;;6.78;4.15;;;;;;;31.35;26.06;100021.06;5039974;28;20025;-26
2021/06/06 11:03:13;;;;;;;5.90;3.17;;;;;;;31.52;25.04;100011.59;4967836;28;20546;-24
2021/06/06 11:05:54;;;;;;;4.70;3.13;;;;;;;31.10;25.14;100004.00;4968964;28;20031;-24
2021/06/06 11:08:28;;;;;;;6.05;3.20;;;;;;;30.79;24.54;100004.78;5003871;28;20049;-24
2021/06/06 11:10:57;;;;;;;6.18;2.85;;;;;;;30.99;22.78;99987.19;5029712;28;20035;-24
2021/06/06 11:13:31;;;;;;;5.65;2.85;;;;;;;31.07;24.13;100001.16;5012697;28;20026;-24
2021/06/06 11:16:00;;;;;;;4.53;2.85;;;;;;;31.19;23.77;99990.81;5029664;28;20035;-25
2021/06/06 11:18:25;;;;;;;5.72;3.00;;;;;;;31.37;23.69;99990.41;5028202;28;20115;-24
2021/06/06 11:21:03;;;;;;;5.18;3.08;;;;;;;31.84;23.98;99989.41;5029756;28;20029;-26
2021/06/06 11:23:47;;;;;;;4.97;3.10;;;;;;;31.99;23.44;99974.72;5028293;28;20387;-24
2021/06/06 11:26:19;;;;;;;4.38;3.40;;;;;;;32.47;23.16;99981.84;5028324;28;20029;-24
2021/06/06 11:28:45;;;;;;;4.13;3.22;;;;;;;32.73;22.89;99970.84;5029534;28;20029;-23